Terminal Aerodrome Forecast
Issued by NWS

Home | Current Version | Previous Version | Text Only | Print | Product List | Glossary On
Versions: 1 2 3 4 5 6 7 8 9 10 11 12 13 14 15 16 17 18 19
000
FTUS44 KLIX 031100
TAFGPT
TAF
KGPT 031120Z 0312/0412 16006KT 1/4SM FG OVC003
     FM031600 16008KT P6SM BKN003
     FM031900 16009KT P6SM BKN008
     FM032100 15009KT P6SM BKN015
     FM040000 15009KT 1/4SM FG OVC008=

USA.gov is the U.S. government's official web portal to all federal, state and local government web resources and services.